Aérodrome :
LOGIN :

S'inscrire | Disclaimer

   EN    FR    IT 

 










Légende :    VFR   VFR Marginal   IFR   IFR Intensif   IFR Très Intensif
Visi : 
Plafond : 
>= 8 km
>= 3000ft
5 à 8 km
1000 à 3000 ft
1500m à 5 km
500 à 1000 ft
800 à 1500m
200 à 500 ft
< 800m
< 200 ft
Symboles :   Orages  Brouillard  Fortes neiges  Fortes précipitations  Vent > 20 kt
SIGMETs :   Divers  Orages  Givrage  Turbulence  Onde Orograph.  Cendres Volcan.







- Altitude de l'aérodrome : 499 ft
- Code IATA : TLS
- Voir les cartes d'approche


LFBO - Toulouse / Blagnac

DERNIER METAR :
  • 210000Z AUTO 31005KT 9999 -RA BKN041 OVC050 18/16 Q1016 NOSIG

METARs EXPIRÉS :
  • 202330Z AUTO 29004KT 9999 FEW040 OVC049 18/16 Q1016 NOSIG
  • 202300Z AUTO 31003KT CAVOK 19/16 Q1016 NOSIG
  • 202230Z AUTO VRB02KT 9999 FEW040 BKN050 OVC066 19/16 Q1016 NOSIG
  • 202200Z AUTO 29003KT 9999 SCT038 SCT044 BKN052 19/16 Q1017 NOSIG
  • 202130Z AUTO 29006KT 9999 FEW015 BKN038 OVC056 19/16 Q1017 NOSIG
  • 202100Z AUTO 29006KT 9999 FEW034 BKN058 BKN070 19/16 Q1017 TEMPO BKN035CB

TAF TAF LFBO
Valide du 21 à 00h jusqu'au 22 à 06h UTC


202300Z 2100/2206 30007KT 9999 SCT035 BKN050
PROB30
TEMPO 2101/2106 -RA
TEMPO 2106/2112 4000 RA OVC008
BECMG 2108/2110 27010KT BKN020
BECMG 2116/2118 BKN013
BECMG 2122/2124 CAVOK
BECMG 2203/2205 26005KT
ATIS : +33 5 62 74 66 36
Pas de NOTAMs connus pour ce terrain.
1 SIGMET publié pour la FIR Bordeaux (LFBB) :
 
Orages noyés dans la masse
LFBB SIGMET 6 VALID 202300/210300 LFPW
LFBB BORDEAUX FIR/UIR EMBD TS FCST WI N4230 E00045 - N4245 W00045 - N4300 W00030 - N4245 E00100 - N4230 E00045 TOP FL310 MOV NE 10KT WKN=



MET'MAP, la Météo Aéronautique d'un coup d'oeil ! - Copyright ORBIFLY Décembre 2007 - Disclaimer

ORBIFLY MET'MAP TEAM :

Programmation & Développement : Alexandra Zaïnal
Conception & Développement : Baudouin d'Aumeries
Co-Programmation & Développement : Marc-Olivier Méhu
Soutien technique & logistique : Manuel Goepfert

Contact : metmap@orbifly.com




SOURCES & CREDITS :

   NOAA